createdAt,value
2023-08-26T00:02:02.493Z,23.80
2023-08-26T00:04:43.553Z,23.80
2023-08-26T00:07:24.503Z,23.80
2023-08-26T00:10:05.828Z,23.80
2023-08-26T00:12:46.499Z,23.80
2023-08-26T00:15:34.553Z,23.82
2023-08-26T00:18:10.247Z,23.84
2023-08-26T00:20:59.491Z,23.80
2023-08-26T00:23:40.532Z,23.80
2023-08-26T00:26:28.792Z,23.80
2023-08-26T00:29:02.815Z,23.80
2023-08-26T00:31:50.530Z,23.80
2023-08-26T00:34:31.530Z,23.70
2023-08-26T00:37:19.486Z,23.70
2023-08-26T00:40:00.555Z,23.70
2023-08-26T00:42:44.567Z,23.70
2023-08-26T00:45:25.515Z,23.60
2023-08-26T00:48:06.641Z,23.60
2023-08-26T00:50:51.525Z,23.56
2023-08-26T00:53:32.607Z,23.50
2023-08-26T00:56:13.469Z,23.48
2023-08-26T00:59:01.566Z,23.44
2023-08-26T01:01:36.748Z,23.40
2023-08-26T01:04:25.584Z,23.40
2023-08-26T01:07:06.482Z,23.30
2023-08-26T01:09:47.572Z,23.30
2023-08-26T01:12:59.500Z,23.30
2023-08-26T01:15:47.565Z,23.20
2023-08-26T01:18:28.506Z,23.20
2023-08-26T01:21:17.568Z,23.10
2023-08-26T01:23:53.666Z,23.10
2023-08-26T01:26:41.501Z,23.04
2023-08-26T01:29:15.808Z,23.00
2023-08-26T01:32:22.626Z,22.90
2023-08-26T01:34:59.741Z,22.90
2023-08-26T01:37:52.750Z,22.80
2023-08-26T01:40:30.260Z,22.72
2023-08-26T01:43:19.486Z,22.70
2023-08-26T01:45:54.283Z,22.70
2023-08-26T01:48:42.480Z,22.60
2023-08-26T01:51:17.248Z,22.60
2023-08-26T01:54:04.555Z,22.52
2023-08-26T01:56:38.792Z,22.50
2023-08-26T01:59:26.535Z,22.50
2023-08-26T02:02:01.908Z,22.50
2023-08-26T02:04:52.481Z,22.60
2023-08-26T02:07:33.527Z,22.60
2023-08-26T02:10:22.511Z,22.60
2023-08-26T02:13:03.541Z,22.50
2023-08-26T02:15:44.584Z,22.50
2023-08-26T02:18:26.472Z,22.50
2023-08-26T02:21:07.649Z,22.50
2023-08-26T02:23:48.511Z,22.40
2023-08-26T02:26:29.573Z,22.40
2023-08-26T02:29:10.465Z,22.36
2023-08-26T02:31:51.743Z,22.40
2023-08-26T02:34:33.493Z,22.30
2023-08-26T02:37:14.677Z,22.30
2023-08-26T02:39:55.472Z,22.20
2023-08-26T02:42:43.535Z,22.20
2023-08-26T02:45:38.630Z,22.20
2023-08-26T02:48:27.513Z,22.10
2023-08-26T02:51:06.576Z,22.10
2023-08-26T02:53:54.515Z,22.02
2023-08-26T02:56:35.526Z,22.00
2023-08-26T02:59:30.510Z,21.98
2023-08-26T03:02:18.553Z,21.90
2023-08-26T03:04:53.587Z,21.90
2023-08-26T03:07:41.510Z,21.88
2023-08-26T03:10:15.588Z,21.80
2023-08-26T03:13:03.458Z,21.80
2023-08-26T03:15:44.535Z,21.80
2023-08-26T03:18:39.483Z,21.80
2023-08-26T03:21:34.475Z,21.80
2023-08-26T03:24:24.472Z,21.74
2023-08-26T03:27:05.472Z,21.74
2023-08-26T03:29:53.521Z,21.72
2023-08-26T03:32:34.617Z,21.72
2023-08-26T03:35:29.520Z,21.70
2023-08-26T03:38:17.480Z,21.70
2023-08-26T03:40:58.528Z,21.70
2023-08-26T03:43:39.830Z,21.60
2023-08-26T03:46:34.507Z,21.60
2023-08-26T03:49:22.571Z,21.60
2023-08-26T03:51:56.531Z,21.60
2023-08-26T03:54:44.486Z,21.60
2023-08-26T03:57:18.549Z,21.60
2023-08-26T04:00:06.498Z,21.60
2023-08-26T04:02:40.569Z,21.60
2023-08-26T04:05:28.518Z,21.50
2023-08-26T04:08:09.631Z,21.50
2023-08-26T04:11:09.488Z,21.50
2023-08-26T04:13:57.521Z,21.40
2023-08-26T04:16:31.564Z,21.40
2023-08-26T04:19:19.475Z,21.40
2023-08-26T04:22:01.559Z,21.40
2023-08-26T04:24:56.506Z,21.40
2023-08-26T04:27:45.532Z,21.38
2023-08-26T04:30:20.528Z,21.40
2023-08-26T04:33:14.600Z,21.40
2023-08-26T04:35:55.535Z,21.40
2023-08-26T04:38:43.530Z,21.40
2023-08-26T04:41:24.531Z,21.40
2023-08-26T04:44:20.494Z,21.40
2023-08-26T04:47:08.559Z,21.50
2023-08-26T04:49:42.565Z,21.50
2023-08-26T04:52:30.545Z,21.60
2023-08-26T04:55:05.446Z,21.60
2023-08-26T04:57:53.636Z,21.70
2023-08-26T05:00:28.121Z,21.70
2023-08-26T05:03:15.652Z,21.88
2023-08-26T05:05:50.538Z,22.00
2023-08-26T05:08:38.476Z,22.10
2023-08-26T05:11:13.589Z,22.20
2023-08-26T05:14:02.587Z,22.20
2023-08-26T05:16:43.562Z,22.30
2023-08-26T05:19:38.573Z,22.30
2023-08-26T05:22:33.523Z,22.40
2023-08-26T05:25:21.676Z,22.50
2023-08-26T05:28:05.365Z,22.52
2023-08-26T05:30:46.474Z,22.60
2023-08-26T05:33:27.549Z,22.70
2023-08-26T05:36:08.517Z,22.80
2023-08-26T05:38:49.596Z,22.90
2023-08-26T05:41:30.541Z,22.92
2023-08-26T05:44:19.522Z,23.00
2023-08-26T05:46:55.455Z,23.12
2023-08-26T05:49:43.530Z,23.20
2023-08-26T05:52:17.792Z,23.30
2023-08-26T05:55:05.549Z,23.40
2023-08-26T05:57:49.614Z,23.50
2023-08-26T06:00:31.537Z,23.64
2023-08-26T06:03:12.467Z,23.74
2023-08-26T06:06:01.491Z,23.90
2023-08-26T06:08:42.610Z,24.00
2023-08-26T06:11:23.731Z,24.10
2023-08-26T06:14:05.517Z,24.28
2023-08-26T06:16:55.497Z,24.40
2023-08-26T06:19:50.519Z,24.50
2023-08-26T06:22:38.513Z,24.60
2023-08-26T06:25:13.546Z,24.78
2023-08-26T06:28:01.500Z,24.90
2023-08-26T06:30:49.539Z,25.00
2023-08-26T06:33:23.870Z,25.10
2023-08-26T06:36:11.474Z,25.10
2023-08-26T06:38:45.902Z,25.20
2023-08-26T06:41:33.497Z,25.30
2023-08-26T06:44:15.597Z,25.40
2023-08-26T06:47:03.510Z,25.50
2023-08-26T06:49:37.801Z,25.60
2023-08-26T06:52:25.527Z,25.70
2023-08-26T06:54:59.785Z,25.80
2023-08-26T06:57:47.484Z,25.90
2023-08-26T07:00:28.505Z,26.00
2023-08-26T07:03:10.021Z,26.06
2023-08-26T07:05:54.567Z,26.10
2023-08-26T07:08:35.559Z,26.20
2023-08-26T07:11:16.554Z,26.24
2023-08-26T07:13:57.564Z,26.30
2023-08-26T07:16:38.534Z,26.38
2023-08-26T07:19:33.472Z,26.40
2023-08-26T07:22:29.175Z,26.40
2023-08-26T07:25:04.599Z,26.50
2023-08-26T07:27:53.507Z,26.56
2023-08-26T07:30:41.476Z,26.60
2023-08-26T07:33:15.970Z,26.60
2023-08-26T07:36:03.518Z,26.60
2023-08-26T07:38:39.627Z,26.60
2023-08-26T07:41:29.132Z,26.56
2023-08-26T07:44:04.567Z,26.54
2023-08-26T07:49:29.932Z,26.50
2023-08-26T07:52:18.489Z,26.58
2023-08-26T07:54:59.514Z,26.60
2023-08-26T07:57:40.514Z,26.70
2023-08-26T08:00:21.515Z,26.70
2023-08-26T08:03:02.581Z,26.80
2023-08-26T08:05:43.526Z,26.90
2023-08-26T08:08:26.107Z,27.00
2023-08-26T08:11:07.459Z,27.00
2023-08-26T08:13:55.502Z,27.00
2023-08-26T08:16:36.539Z,27.00
2023-08-26T08:19:31.451Z,27.10
2023-08-26T08:22:21.465Z,27.20
2023-08-26T08:24:55.519Z,27.20
2023-08-26T08:27:44.492Z,27.26
2023-08-26T08:30:18.898Z,27.30
2023-08-26T08:33:06.520Z,27.34
2023-08-26T08:35:47.518Z,27.32
2023-08-26T08:38:42.433Z,27.40
2023-08-26T08:41:30.505Z,27.40
2023-08-26T08:44:22.479Z,27.50
2023-08-26T08:47:17.542Z,27.60
2023-08-26T08:50:06.493Z,27.60
2023-08-26T08:52:48.459Z,27.70
2023-08-26T08:55:43.535Z,27.70
2023-08-26T08:58:32.551Z,27.80
2023-08-26T09:01:08.619Z,27.80
2023-08-26T09:03:56.506Z,27.80
2023-08-26T09:06:30.559Z,27.84
2023-08-26T09:09:30.314Z,27.80
2023-08-26T09:12:15.459Z,27.80
2023-08-26T09:15:03.476Z,27.70
2023-08-26T09:17:44.544Z,27.70
2023-08-26T09:20:34.510Z,27.60
2023-08-26T09:23:12.544Z,27.68
2023-08-26T09:26:03.529Z,27.70
2023-08-26T09:28:44.460Z,27.78
2023-08-26T09:31:39.492Z,27.80
2023-08-26T09:34:33.470Z,27.80
2023-08-26T09:37:07.643Z,27.90
2023-08-26T09:39:55.520Z,27.90
2023-08-26T09:42:31.735Z,28.00
2023-08-26T09:45:24.506Z,28.00
2023-08-26T09:48:09.578Z,28.00
2023-08-26T09:50:57.519Z,28.04
2023-08-26T09:53:36.563Z,28.00
2023-08-26T09:56:25.508Z,28.10
2023-08-26T09:59:01.529Z,28.14
2023-08-26T10:01:50.517Z,28.20
2023-08-26T10:04:42.453Z,28.30
2023-08-26T10:07:43.570Z,28.30
2023-08-26T10:10:55.514Z,28.30
2023-08-26T10:13:40.476Z,28.30
2023-08-26T10:16:35.712Z,28.30
2023-08-26T10:19:10.543Z,28.30
2023-08-26T10:22:00.537Z,28.30
2023-08-26T10:24:42.492Z,28.30
2023-08-26T10:27:38.495Z,28.30
2023-08-26T10:30:27.467Z,28.28
2023-08-26T10:33:10.598Z,28.22
2023-08-26T10:36:21.509Z,28.20
2023-08-26T10:39:06.574Z,28.20
2023-08-26T10:42:20.509Z,28.30
2023-08-26T10:45:12.552Z,28.30
2023-08-26T10:48:09.465Z,28.26
2023-08-26T10:51:09.521Z,28.30
2023-08-26T10:53:51.695Z,28.30
2023-08-26T10:56:45.466Z,28.28
2023-08-26T10:59:26.478Z,28.20
2023-08-26T11:02:25.566Z,28.20
2023-08-26T11:05:14.545Z,28.20
2023-08-26T11:07:49.006Z,28.20
2023-08-26T11:10:47.530Z,28.16
2023-08-26T11:13:28.555Z,28.10
2023-08-26T11:16:23.614Z,28.10
2023-08-26T11:19:20.630Z,28.04
2023-08-26T11:22:08.462Z,28.00
2023-08-26T11:24:42.539Z,28.00
2023-08-26T11:27:30.542Z,28.00
2023-08-26T11:30:11.626Z,27.90
2023-08-26T11:33:06.573Z,27.90
2023-08-26T11:36:08.428Z,27.90
2023-08-26T11:38:52.545Z,27.90
2023-08-26T11:41:47.545Z,27.88
2023-08-26T11:44:35.579Z,27.80
2023-08-26T11:47:12.516Z,27.80
2023-08-26T11:50:04.499Z,27.80
2023-08-26T11:52:44.565Z,27.74
2023-08-26T11:55:35.482Z,27.70
2023-08-26T11:58:11.592Z,27.70
2023-08-26T12:00:59.489Z,27.66
2023-08-26T12:03:45.476Z,27.60
2023-08-26T12:06:33.472Z,27.60
2023-08-26T12:09:07.783Z,27.50
2023-08-26T12:11:55.561Z,27.50
2023-08-26T12:14:36.562Z,27.40
2023-08-26T12:17:32.472Z,27.40
2023-08-26T12:20:43.499Z,27.40
2023-08-26T12:23:31.513Z,27.30
2023-08-26T12:26:05.543Z,27.30
2023-08-26T12:28:53.513Z,27.30
2023-08-26T12:31:28.856Z,27.30
2023-08-26T12:34:30.465Z,27.28
2023-08-26T12:37:25.505Z,27.28
2023-08-26T12:40:21.498Z,27.20
2023-08-26T12:43:11.526Z,27.20
2023-08-26T12:45:46.641Z,27.20
2023-08-26T12:51:26.500Z,27.18
2023-08-26T12:54:14.494Z,27.16
2023-08-26T12:56:48.598Z,27.16
2023-08-26T12:59:36.480Z,27.10
2023-08-26T13:02:18.268Z,27.10
2023-08-26T13:04:59.524Z,27.10
2023-08-26T13:07:41.640Z,27.10
2023-08-26T13:10:22.485Z,27.10
2023-08-26T13:13:10.483Z,27.10
2023-08-26T13:15:51.545Z,27.10
2023-08-26T13:18:50.509Z,27.10
2023-08-26T13:21:38.552Z,27.08
2023-08-26T13:24:15.985Z,27.00
2023-08-26T13:27:04.541Z,27.00
2023-08-26T13:29:38.570Z,27.00
2023-08-26T13:32:26.535Z,27.04
2023-08-26T13:35:07.572Z,27.10
2023-08-26T13:38:02.599Z,27.10
2023-08-26T13:40:50.552Z,27.10
2023-08-26T13:43:24.568Z,27.20
2023-08-26T13:46:12.505Z,27.24
2023-08-26T13:48:53.537Z,27.30
2023-08-26T13:51:41.536Z,27.40
2023-08-26T13:54:15.590Z,27.40
2023-08-26T13:57:03.569Z,27.50
2023-08-26T13:59:38.955Z,27.50
2023-08-26T14:02:28.578Z,27.60
2023-08-26T14:05:02.598Z,27.60
2023-08-26T14:07:52.647Z,27.60
2023-08-26T14:10:33.522Z,27.60
2023-08-26T14:13:21.488Z,27.60
2023-08-26T14:15:55.643Z,27.60
2023-08-26T14:18:50.496Z,27.60
2023-08-26T14:21:38.535Z,27.60
2023-08-26T14:24:13.606Z,27.60
2023-08-26T14:27:01.493Z,27.60
2023-08-26T14:29:42.519Z,27.60
2023-08-26T14:32:30.665Z,27.60
2023-08-26T14:35:04.616Z,27.60
2023-08-26T14:37:52.826Z,27.60
2023-08-26T14:40:27.601Z,27.60
2023-08-26T14:43:15.529Z,27.60
2023-08-26T14:45:52.733Z,27.64
2023-08-26T14:48:40.551Z,27.66
2023-08-26T14:51:14.545Z,27.60
2023-08-26T14:54:02.482Z,27.62
2023-08-26T14:56:43.548Z,27.70
2023-08-26T14:59:38.453Z,27.70
2023-08-26T15:02:26.536Z,27.70
2023-08-26T15:05:02.552Z,27.70
2023-08-26T15:07:50.480Z,27.70
2023-08-26T15:10:24.511Z,27.70
2023-08-26T15:13:13.517Z,27.70
2023-08-26T15:15:51.756Z,27.70
2023-08-26T15:18:46.616Z,27.64
2023-08-26T15:21:41.454Z,27.60
2023-08-26T15:24:29.535Z,27.60
2023-08-26T15:27:03.566Z,27.50
2023-08-26T15:29:53.531Z,27.50
2023-08-26T15:32:34.581Z,27.50
2023-08-26T15:35:22.481Z,27.50
2023-08-26T15:37:56.797Z,27.48
2023-08-26T15:40:44.528Z,27.44
2023-08-26T15:43:18.570Z,27.40
2023-08-26T15:46:06.526Z,27.40
2023-08-26T15:48:47.518Z,27.40
2023-08-26T15:51:28.828Z,27.40
2023-08-26T15:54:16.584Z,27.40
2023-08-26T15:56:50.802Z,27.40
2023-08-26T15:59:38.482Z,27.40
2023-08-26T16:02:20.521Z,27.40
2023-08-26T16:05:09.534Z,27.40
2023-08-26T16:07:46.221Z,27.40
2023-08-26T16:10:33.618Z,27.40
2023-08-26T16:13:14.542Z,27.40
2023-08-26T16:15:55.574Z,27.40
2023-08-26T16:18:36.502Z,27.40
2023-08-26T16:21:17.642Z,27.40
2023-08-26T16:24:05.493Z,27.36
2023-08-26T16:27:00.445Z,27.30
2023-08-26T16:29:48.530Z,27.30
2023-08-26T16:32:22.661Z,27.20
2023-08-26T16:35:11.467Z,27.20
2023-08-26T16:37:45.705Z,27.18
2023-08-26T16:40:33.544Z,27.10
2023-08-26T16:43:07.612Z,27.10
2023-08-26T16:45:55.602Z,27.00
2023-08-26T16:48:29.638Z,27.00
2023-08-26T16:51:17.553Z,26.90
2023-08-26T16:54:05.537Z,26.90
2023-08-26T16:56:39.800Z,26.84
2023-08-26T16:59:27.523Z,26.80
2023-08-26T17:02:02.424Z,26.80
2023-08-26T17:04:50.550Z,26.80
2023-08-26T17:07:45.486Z,26.80
2023-08-26T17:10:42.615Z,26.70
2023-08-26T17:13:33.596Z,26.70
2023-08-26T17:16:08.582Z,26.66
2023-08-26T17:19:03.521Z,26.62
2023-08-26T17:21:51.491Z,26.60
2023-08-26T17:24:25.582Z,26.54
2023-08-26T17:27:13.531Z,26.50
2023-08-26T17:29:47.614Z,26.50
2023-08-26T17:32:35.589Z,26.50
2023-08-26T17:35:09.616Z,26.40
2023-08-26T17:37:57.595Z,26.40
2023-08-26T17:40:31.591Z,26.30
2023-08-26T17:43:19.491Z,26.30
2023-08-26T17:45:55.743Z,26.30
2023-08-26T17:48:44.483Z,26.30
2023-08-26T17:51:18.594Z,26.26
2023-08-26T17:54:06.559Z,26.20
2023-08-26T17:56:47.538Z,26.12
2023-08-26T17:59:42.501Z,26.10
2023-08-26T18:02:30.550Z,26.00
2023-08-26T18:05:05.797Z,26.00
2023-08-26T18:07:53.628Z,26.00
2023-08-26T18:10:27.574Z,26.00
2023-08-26T18:13:15.562Z,26.00
2023-08-26T18:15:49.615Z,26.00
2023-08-26T18:18:44.562Z,26.00
2023-08-26T18:21:39.515Z,25.94
2023-08-26T18:24:27.523Z,25.90
2023-08-26T18:27:01.650Z,25.80
2023-08-26T18:29:49.532Z,25.80
2023-08-26T18:32:30.516Z,25.70
2023-08-26T18:35:25.460Z,25.60
2023-08-26T18:38:13.470Z,25.60
2023-08-26T18:40:47.558Z,25.50
2023-08-26T18:43:35.540Z,25.48
2023-08-26T18:46:16.607Z,25.40
2023-08-26T18:49:11.469Z,25.32
2023-08-26T18:51:59.536Z,25.30
2023-08-26T18:54:33.539Z,25.26
2023-08-26T18:57:21.516Z,25.20
2023-08-26T18:59:55.618Z,25.20
2023-08-26T19:02:43.631Z,25.10
2023-08-26T19:05:24.531Z,25.10
2023-08-26T19:08:19.507Z,25.00
2023-08-26T19:11:07.523Z,25.00
2023-08-26T19:13:41.705Z,24.90
2023-08-26T19:16:29.543Z,24.90
2023-08-26T19:19:03.583Z,24.80
2023-08-26T19:21:51.488Z,24.80
2023-08-26T19:24:25.572Z,24.80
2023-08-26T19:27:13.533Z,24.80
2023-08-26T19:29:47.558Z,24.80
2023-08-26T19:32:35.567Z,24.72
2023-08-26T19:35:18.521Z,24.70
2023-08-26T19:38:06.517Z,24.66
2023-08-26T19:40:41.570Z,24.60
2023-08-26T19:43:29.482Z,24.60
2023-08-26T19:46:10.528Z,24.60
2023-08-26T19:48:58.552Z,24.60
2023-08-26T19:51:33.592Z,24.58
2023-08-26T19:54:21.540Z,24.60
2023-08-26T19:56:56.347Z,24.60
2023-08-26T19:59:44.489Z,24.60
2023-08-26T20:02:18.882Z,24.50
2023-08-26T20:05:06.476Z,24.50
2023-08-26T20:07:54.514Z,24.50
2023-08-26T20:10:28.958Z,24.50
2023-08-26T20:13:16.526Z,24.40
2023-08-26T20:15:50.930Z,24.36
2023-08-26T20:18:38.488Z,24.30
2023-08-26T20:21:33.492Z,24.30
2023-08-26T20:24:21.606Z,24.30
2023-08-26T20:26:55.608Z,24.30
2023-08-26T20:29:43.511Z,24.30
2023-08-26T20:32:24.484Z,24.40
2023-08-26T20:35:14.521Z,24.40
2023-08-26T20:37:55.540Z,24.40
2023-08-26T20:40:46.513Z,24.40
2023-08-26T20:43:20.608Z,24.40
2023-08-26T20:46:09.643Z,24.40
2023-08-26T20:48:45.111Z,24.30
2023-08-26T20:51:33.491Z,24.20
2023-08-26T20:54:08.524Z,24.20
2023-08-26T20:56:56.560Z,24.10
2023-08-26T20:59:37.571Z,24.00
2023-08-26T21:02:18.452Z,24.00
2023-08-26T21:04:59.623Z,23.90
2023-08-26T21:07:47.510Z,23.90
2023-08-26T21:10:21.587Z,23.80
2023-08-26T21:13:10.509Z,23.72
2023-08-26T21:15:46.494Z,23.70
2023-08-26T21:18:43.470Z,23.70
2023-08-26T21:21:31.467Z,23.70
2023-08-26T21:24:05.654Z,23.70
2023-08-26T21:26:54.523Z,23.60
2023-08-26T21:29:28.557Z,23.60
2023-08-26T21:32:16.479Z,23.50
2023-08-26T21:34:50.598Z,23.50
2023-08-26T21:37:42.515Z,23.58
2023-08-26T21:40:17.675Z,23.60
2023-08-26T21:43:05.490Z,23.60
2023-08-26T21:45:42.628Z,23.50
2023-08-26T21:48:30.539Z,23.50
2023-08-26T21:51:04.662Z,23.50
2023-08-26T21:53:52.493Z,23.54
2023-08-26T21:56:33.483Z,23.52
2023-08-26T21:59:28.504Z,23.46
2023-08-26T22:02:16.653Z,23.40
2023-08-26T22:04:50.601Z,23.50
2023-08-26T22:07:38.529Z,23.50
2023-08-26T22:10:20.483Z,23.50
2023-08-26T22:13:15.437Z,23.50
2023-08-26T22:16:03.503Z,23.40
2023-08-26T22:18:58.454Z,23.40
2023-08-26T22:21:46.522Z,23.30
2023-08-26T22:24:27.481Z,23.30
2023-08-26T22:27:15.525Z,23.30
2023-08-26T22:29:56.471Z,23.38
2023-08-26T22:32:51.554Z,23.40
2023-08-26T22:35:39.481Z,23.40
2023-08-26T22:38:20.481Z,23.38
2023-08-26T22:41:09.603Z,23.30
2023-08-26T22:43:50.833Z,23.30
2023-08-26T22:46:45.557Z,23.30
2023-08-26T22:49:33.521Z,23.20
2023-08-26T22:52:07.585Z,23.20
2023-08-26T22:54:55.572Z,23.20
2023-08-26T22:57:29.649Z,23.26
2023-08-26T23:00:18.464Z,23.30
2023-08-26T23:02:59.757Z,23.30
2023-08-26T23:05:47.476Z,23.22
2023-08-26T23:08:28.573Z,23.20
2023-08-26T23:11:09.511Z,23.20
2023-08-26T23:13:50.535Z,23.20
2023-08-26T23:16:31.584Z,23.20
2023-08-26T23:19:26.481Z,23.20
2023-08-26T23:22:15.464Z,23.20
2023-08-26T23:24:56.551Z,23.20
2023-08-26T23:27:44.488Z,23.10
